Nearby METAR Reports

 

KSNK - Snyder/Winston, Texas, USA
Distance from station: SSE 25mi, 41km
Updated: Sat, 19-Sep-2020 8:15pm CDT
Clear
Clear
 Wind from E
Wind: E 5 mph , 7 km/h
Temperature: 72°F , 22°C
Dew Point: 55°F , 13°C
Humidity: 57%
Barometer: 30.16 inHg , 1021.3 hPa
Clouds: Clear
Visibility: 10 miles , 16 km
2020/09/20 01:15 KSNK 200115Z AUTO 09004KT 10SM CLR 22/13 A3016 RMK AO2 T02150125
KSWW - Sweetwater, Texas, USA
Distance from station: SE 56mi, 90km
Updated: Sat, 19-Sep-2020 8:15pm CDT
Clear
Clear
 Wind from E
Wind: E 5 mph , 7 km/h
Temperature: 70°F , 21°C
Dew Point: 55°F , 13°C
Humidity: 60%
Barometer: 30.17 inHg , 1021.7 hPa
Clouds: Clear
Visibility: 7 miles , 11 km
2020/09/20 01:15 KSWW 200115Z AUTO 08004KT 7SM CLR 21/13 A3017 RMK AO2 T02080128
 
KLBB - Lubbock, Texas, USA
Distance from station: NW 59mi, 94km
Updated: Sat, 19-Sep-2020 7:53pm CDT
Clear
Clear
 Wind from SE
Wind: SE 9 mph , 15 km/h
Temperature: 73°F , 23°C
Dew Point: 50°F , 10°C
Humidity: 44%
Barometer: 30.16 inHg , 1021.3 hPa
Clouds: Clear
Visibility: 7 miles , 11 km
2020/09/20 00:53 KLBB 200053Z 14008KT 7SM CLR 23/10 A3016 RMK AO2 SLP180 HZ ALQDS T02280100
KPVW - Plainview, Texas, USA
Distance from station: NNW 85mi, 137km
Updated: Sat, 19-Sep-2020 8:15pm CDT
Clear
Clear
 Wind from SSE
Wind: SSE 9 mph , 15 km/h
Temperature: 68°F , 20°C
Dew Point: 48°F , 9°C
Humidity: 49%
Barometer: 30.16 inHg , 1021.3 hPa
Clouds: Clear
Visibility: 10 miles , 16 km
2020/09/20 01:15 KPVW 200115Z AUTO 15008KT 10SM CLR 20/09 A3016 RMK AO2 T02030086
 
KDYS - Dyess Afb/Abilen, Texas, USA
Distance from station: ESE 88mi, 141km
Updated: Sat, 19-Sep-2020 7:56pm CDT
Clear
Clear
 Wind from ENE
Wind: ENE 5 mph , 7 km/h
Temperature: 72°F , 22°C
Dew Point: 50°F , 10°C
Humidity: 47%
Barometer: 30.11 inHg , 1019.6 hPa
Clouds: Clear
Visibility: 10 miles , 16 km
2020/09/20 00:56 KDYS 200056Z AUTO 07004KT 10SM CLR 22/10 A3011 RMK AO2 SLP168 T02190104
KGNC - Seminole, Texas, USA
Distance from station: WSW 89mi, 144km
Updated: Sat, 19-Sep-2020 8:15pm CDT
Clear
Clear
 Wind from SE
Wind: SE 6 mph , 9 km/h
Temperature: 73°F , 23°C
Dew Point: 52°F , 11°C
Humidity: 47%
Barometer: 30.20 inHg , 1022.7 hPa
Clouds: Clear
Visibility: 10 miles , 16 km
2020/09/20 01:15 KGNC 200115Z AUTO 13005KT 10SM CLR 23/11 A3020 RMK AO2 T02250105
 
KE11 - Andrews, Texas, USA
Distance from station: WSW 93mi, 149km
Updated: Sat, 19-Sep-2020 8:15pm CDT
Clear
Clear
 Wind from SE
Wind: SE 6 mph , 9 km/h
Temperature: 73°F , 23°C
Dew Point: 52°F , 11°C
Humidity: 47%
Barometer: 30.16 inHg , 1021.3 hPa
Clouds: Clear
Visibility: 10 miles , 16 km
2020/09/20 01:15 KE11 200115Z AUTO 13005KT 10SM CLR 23/11 A3016 RMK AO2 T02250106
KABI - Abilene, Texas, USA
Distance from station: ESE 96mi, 154km
Updated: Sat, 19-Sep-2020 7:52pm CDT
Haze, Clear
Haze, Clear
 Wind from E
Wind: E 7 mph , 11 km/h
Temperature: 72°F , 22°C
Dew Point: 55°F , 13°C
Humidity: 57%
Barometer: 30.13 inHg , 1020.3 hPa
Summary: Haze
Clouds: Clear
Visibility: 6 miles , 10 km
2020/09/20 00:52 KABI 200052Z 08006KT 6SM HZ CLR 22/13 A3013 RMK AO2 SLP185 T02220128
 
KMAF - Midland, Texas, USA
Distance from station: SW 96mi, 154km
Updated: Sat, 19-Sep-2020 7:53pm CDT
Haze, Clear
Haze, Clear
 Wind from ESE
Wind: ESE 10 mph , 17 km/h
Temperature: 75°F , 24°C
Dew Point: 52°F , 11°C
Humidity: 44%
Barometer: 30.14 inHg , 1020.7 hPa
Summary: Haze
Clouds: Clear
Visibility: 6 miles , 10 km
2020/09/20 00:53 KMAF 200053Z 11009KT 6SM HZ CLR 24/11 A3014 RMK AO2 SLP172 T02390111
KCDS - Childress, Texas, USA
Distance from station: NNE 110mi, 177km
Updated: Sat, 19-Sep-2020 7:53pm CDT
Clear
Clear
 Wind from SE
Wind: SE 8 mph , 13 km/h
Temperature: 70°F , 21°C
Dew Point: 54°F , 12°C
Humidity: 57%
Barometer: 30.14 inHg , 1020.7 hPa
Clouds: Clear
Visibility: 7 miles , 11 km
2020/09/20 00:53 KCDS 200053Z AUTO 14007KT 7SM CLR 21/12 A3014 RMK AO2 SLP192 T02110117
 
KSJT - San Angelo, Texas, USA
Distance from station: SSE 121mi, 194km
Updated: Sat, 19-Sep-2020 7:51pm CDT
Haze, Clear
Haze, Clear
 Wind from ENE
Wind: ENE 5 mph , 7 km/h
Temperature: 73°F , 23°C
Dew Point: 55°F , 13°C
Humidity: 53%
Barometer: 30.10 inHg , 1019.3 hPa
Summary: Haze
Clouds: Clear
Visibility: 6 miles , 10 km
2020/09/20 00:51 KSJT 200051Z 07004KT 6SM HZ CLR 23/13 A3010 RMK AO2 SLP180 T02280128
KHOB - Hobbs/Lea Co., New Mexico, USA
Distance from station: WSW 122mi, 196km
Updated: Sat, 19-Sep-2020 8:15pm CDT
Clear
Clear
 Wind from SE
Wind: SE 8 mph , 13 km/h
Temperature: 73°F , 23°C
Dew Point: 48°F , 9°C
Humidity: 41%
Barometer: 30.16 inHg , 1021.3 hPa
Clouds: Clear
Visibility: 10 miles , 16 km
2020/09/20 01:15 KHOB 200115Z AUTO 14007KT 10SM CLR 23/09 A3016 RMK AO2
 
KCOM - Coleman Muni, Texas, USA
Distance from station: SE 131mi, 212km
Updated: Sat, 19-Sep-2020 8:15pm CDT
Clear
Clear
 Wind from E
Wind: E 3 mph , 6 km/h
Temperature: 70°F , 21°C
Dew Point: 55°F , 13°C
Humidity: 60%
Barometer: 30.12 inHg , 1020 hPa
Clouds: Clear
Visibility: 10 miles , 16 km
2020/09/20 01:15 KCOM 200115Z AUTO 08003KT 10SM CLR 21/13 A3012 RMK AO2 T02080130
KBKD - Breckenridge, Texas, USA
Distance from station: E 134mi, 215km
Updated: Sat, 19-Sep-2020 8:15pm CDT
Haze, Clear
Haze, Clear
 Wind from calm
Wind: Calm
Temperature: 72°F , 22°C
Dew Point: 59°F , 15°C
Humidity: 65%
Barometer: 30.11 inHg , 1019.6 hPa
Summary: Haze
Clouds: Clear
Visibility: 5 miles , 8 km
2020/09/20 01:15 KBKD 200115Z AUTO 00000KT 5SM HZ CLR 22/15 A3011 RMK AO2 T02170149
 
KF05 - Vernon Wilbarger, Texas, USA
Distance from station: NE 137mi, 220km
Updated: Sat, 19-Sep-2020 8:15pm CDT
Clear
Clear
 Wind from ESE
Wind: ESE 6 mph , 9 km/h
Temperature: 70°F , 21°C
Dew Point: 55°F , 13°C
Humidity: 60%
Barometer: 30.13 inHg , 1020.3 hPa
Clouds: Clear
Visibility: 7 miles , 11 km
2020/09/20 01:15 KF05 200115Z AUTO 11005KT 7SM CLR 21/13 A3013 RMK AO1 T02120126